createdAt,value
2019-06-25T00:01:53.082Z,2.30
2019-06-25T00:04:24.345Z,2.37
2019-06-25T00:06:59.218Z,2.70
2019-06-25T00:09:28.989Z,2.45
2019-06-25T00:11:57.705Z,2.37
2019-06-25T00:14:26.099Z,2.83
2019-06-25T00:16:56.913Z,2.98
2019-06-25T00:19:27.046Z,2.95
2019-06-25T00:21:55.755Z,2.50
2019-06-25T00:24:27.010Z,2.27
2019-06-25T00:26:56.347Z,2.70
2019-06-25T00:29:30.650Z,2.25
2019-06-25T00:32:00.819Z,3.27
2019-06-25T00:34:29.202Z,2.62
2019-06-25T00:36:57.668Z,2.75
2019-06-25T00:39:31.520Z,2.90
2019-06-25T00:42:01.458Z,2.77
2019-06-25T00:44:29.838Z,2.90
2019-06-25T00:46:58.235Z,2.37
2019-06-25T00:49:26.637Z,3.02
2019-06-25T00:51:58.323Z,2.50
2019-06-25T00:54:26.721Z,11.35
2019-06-25T00:56:57.774Z,2.95
2019-06-25T00:59:30.858Z,2.90
2019-06-25T01:02:06.346Z,2.65
2019-06-25T01:04:36.393Z,2.55
2019-06-25T01:07:08.976Z,2.60
2019-06-25T01:09:37.979Z,2.42
2019-06-25T01:12:10.289Z,2.87
2019-06-25T01:14:40.395Z,2.50
2019-06-25T01:17:14.778Z,2.50
2019-06-25T01:19:43.165Z,2.87
2019-06-25T01:22:14.933Z,2.87
2019-06-25T01:24:47.617Z,2.60
2019-06-25T01:27:27.338Z,2.77
2019-06-25T01:29:47.182Z,2.92
2019-06-25T01:32:18.265Z,2.50
2019-06-25T01:34:50.483Z,2.67
2019-06-25T01:37:22.090Z,3.17
2019-06-25T01:39:53.426Z,2.57
2019-06-25T01:42:24.510Z,2.80
2019-06-25T01:44:55.542Z,2.92
2019-06-25T01:47:27.103Z,2.67
2019-06-25T01:49:58.150Z,2.98
2019-06-25T01:52:32.209Z,3.02
2019-06-25T01:55:05.766Z,3.00
2019-06-25T01:57:31.517Z,2.55
2019-06-25T02:00:06.135Z,2.83
2019-06-25T02:02:34.565Z,3.02
2019-06-25T02:05:05.555Z,2.98
2019-06-25T02:07:38.685Z,2.55
2019-06-25T02:10:14.888Z,2.62
2019-06-25T02:12:43.280Z,2.83
2019-06-25T02:15:14.759Z,2.70
2019-06-25T02:17:47.028Z,2.95
2019-06-25T02:20:20.741Z,3.22
2019-06-25T02:22:49.449Z,3.30
2019-06-25T02:25:20.217Z,3.00
2019-06-25T02:27:48.649Z,3.05
2019-06-25T02:30:20.573Z,3.08
2019-06-25T02:32:51.799Z,2.67
2019-06-25T02:35:22.990Z,2.83
2019-06-25T02:37:51.378Z,2.62
2019-06-25T02:40:20.620Z,2.80
2019-06-25T02:42:51.767Z,2.80
2019-06-25T02:45:21.691Z,3.27
2019-06-25T02:47:50.085Z,2.52
2019-06-25T02:50:20.034Z,2.95
2019-06-25T02:52:51.434Z,2.90
2019-06-25T02:55:20.059Z,2.90
2019-06-25T02:57:51.522Z,3.25
2019-06-25T03:00:23.664Z,2.75
2019-06-25T03:02:52.102Z,2.70
2019-06-25T03:05:23.879Z,3.05
2019-06-25T03:07:55.217Z,2.60
2019-06-25T03:10:26.348Z,2.80
2019-06-25T03:12:56.615Z,2.70
2019-06-25T03:15:32.306Z,2.58
2019-06-25T03:18:00.717Z,2.90
2019-06-25T03:20:30.625Z,2.83
2019-06-25T03:23:01.860Z,2.70
2019-06-25T03:25:36.057Z,3.25
2019-06-25T03:28:11.385Z,3.02
2019-06-25T03:30:41.081Z,2.87
2019-06-25T03:33:12.282Z,2.37
2019-06-25T03:35:43.356Z,3.17
2019-06-25T03:38:11.988Z,3.05
2019-06-25T03:40:41.933Z,2.58
2019-06-25T03:43:15.741Z,2.65
2019-06-25T03:45:44.128Z,3.33
2019-06-25T03:48:15.500Z,2.83
2019-06-25T03:50:43.945Z,2.37
2019-06-25T03:53:12.333Z,2.67
2019-06-25T03:55:43.436Z,3.42
2019-06-25T03:58:11.834Z,2.75
2019-06-25T04:00:43.411Z,2.85
2019-06-25T04:03:12.694Z,2.95
2019-06-25T04:05:47.144Z,3.43
2019-06-25T04:08:21.406Z,2.72
2019-06-25T04:10:53.192Z,2.80
2019-06-25T04:13:23.993Z,2.90
2019-06-25T04:15:52.679Z,2.90
2019-06-25T04:18:24.030Z,2.50
2019-06-25T04:20:52.464Z,2.70
2019-06-25T04:23:25.211Z,2.90
2019-06-25T04:25:54.837Z,2.87
2019-06-25T04:28:26.318Z,3.37
2019-06-25T04:30:57.609Z,3.08
2019-06-25T04:33:28.885Z,3.98
2019-06-25T04:36:02.883Z,2.87
2019-06-25T04:38:42.250Z,2.87
2019-06-25T04:41:14.107Z,2.55
2019-06-25T04:43:42.299Z,2.62
2019-06-25T04:46:11.625Z,3.00
2019-06-25T04:48:41.245Z,2.70
2019-06-25T04:51:15.309Z,2.83
2019-06-25T04:53:47.662Z,3.12
2019-06-25T04:56:18.536Z,2.60
2019-06-25T04:58:48.456Z,3.25
2019-06-25T05:01:16.822Z,2.58
2019-06-25T05:03:48.200Z,2.40
2019-06-25T05:06:16.578Z,2.65
2019-06-25T05:08:47.658Z,2.42
2019-06-25T05:11:21.730Z,2.37
2019-06-25T05:13:52.989Z,2.58
2019-06-25T05:16:27.587Z,2.62
2019-06-25T05:18:58.760Z,2.83
2019-06-25T05:21:28.495Z,2.62
2019-06-25T05:23:59.185Z,2.27
2019-06-25T05:26:34.698Z,2.42
2019-06-25T05:29:06.405Z,2.02
2019-06-25T05:31:34.797Z,2.30
2019-06-25T05:34:06.206Z,2.12
2019-06-25T05:36:45.321Z,2.35
2019-06-25T05:39:19.256Z,2.08
2019-06-25T05:41:50.043Z,2.55
2019-06-25T05:44:24.213Z,2.45
2019-06-25T05:46:52.641Z,2.17
2019-06-25T05:49:21.087Z,1.90
2019-06-25T05:51:52.581Z,2.52
2019-06-25T05:54:22.518Z,2.50
2019-06-25T05:56:53.893Z,2.40
2019-06-25T05:59:22.298Z,2.33
2019-06-25T06:01:50.681Z,2.00
2019-06-25T06:04:19.078Z,2.20
2019-06-25T06:06:56.122Z,1.98
2019-06-25T06:09:24.525Z,1.95
2019-06-25T06:11:55.620Z,2.47
2019-06-25T06:14:24.108Z,2.15
2019-06-25T06:16:58.362Z,2.02
2019-06-25T06:19:28.539Z,2.00
2019-06-25T06:21:58.418Z,2.15
2019-06-25T06:24:33.842Z,1.80
2019-06-25T06:27:04.980Z,1.92
2019-06-25T06:29:36.335Z,2.20
2019-06-25T06:32:06.937Z,1.85
2019-06-25T06:34:37.302Z,2.42
2019-06-25T06:37:08.641Z,1.87
2019-06-25T06:39:40.073Z,2.17
2019-06-25T06:42:15.562Z,2.10
2019-06-25T06:44:43.949Z,1.92
2019-06-25T06:47:15.186Z,2.08
2019-06-25T06:49:45.434Z,1.85
2019-06-25T06:52:15.146Z,1.87
2019-06-25T06:54:47.266Z,2.05
2019-06-25T06:57:15.797Z,2.33
2019-06-25T06:59:44.199Z,2.20
2019-06-25T07:02:14.288Z,2.22
2019-06-25T07:04:45.722Z,1.70
2019-06-25T07:07:16.021Z,2.02
2019-06-25T07:09:48.665Z,2.05
2019-06-25T07:12:17.314Z,2.02
2019-06-25T07:14:46.006Z,1.65
2019-06-25T07:17:19.801Z,2.40
2019-06-25T07:19:50.862Z,2.58
2019-06-25T07:22:19.317Z,1.80
2019-06-25T07:24:50.408Z,2.17
2019-06-25T07:27:20.474Z,1.92
2019-06-25T07:29:49.430Z,2.20
2019-06-25T07:32:20.410Z,1.85
2019-06-25T07:34:51.538Z,1.87
2019-06-25T07:37:21.880Z,1.87
2019-06-25T07:39:50.942Z,1.80
2019-06-25T07:42:19.491Z,1.92
2019-06-25T07:44:51.054Z,1.77
2019-06-25T07:47:22.886Z,2.22
2019-06-25T07:49:53.168Z,2.22
2019-06-25T07:52:23.127Z,2.00
2019-06-25T07:54:53.461Z,2.22
2019-06-25T07:57:25.882Z,2.17
2019-06-25T07:59:57.153Z,2.30
2019-06-25T08:02:25.606Z,1.90
2019-06-25T08:04:56.658Z,1.80
2019-06-25T08:07:31.159Z,2.20
2019-06-25T08:10:00.370Z,1.90
2019-06-25T08:12:31.594Z,1.62
2019-06-25T08:14:59.990Z,2.45
2019-06-25T08:17:28.406Z,2.22
2019-06-25T08:20:03.083Z,2.25
2019-06-25T08:22:34.359Z,2.12
2019-06-25T08:25:05.813Z,2.40
2019-06-25T08:27:38.594Z,1.98
2019-06-25T08:30:09.420Z,2.37
2019-06-25T08:32:38.040Z,1.92
2019-06-25T08:35:22.582Z,2.22
2019-06-25T08:37:59.051Z,1.90
2019-06-25T08:40:27.437Z,2.05
2019-06-25T08:42:56.060Z,2.22
2019-06-25T08:45:30.498Z,2.08
2019-06-25T08:48:01.850Z,2.15
2019-06-25T08:50:33.164Z,1.92
2019-06-25T08:53:09.114Z,1.90
2019-06-25T08:55:40.473Z,2.20
2019-06-25T08:58:09.869Z,2.08
2019-06-25T09:00:40.754Z,1.82
2019-06-25T09:03:15.436Z,1.95
2019-06-25T09:05:47.225Z,1.90
2019-06-25T09:08:15.915Z,2.52
2019-06-25T09:10:44.299Z,2.10
2019-06-25T09:13:13.195Z,2.35
2019-06-25T09:15:41.577Z,2.00
2019-06-25T09:18:11.539Z,2.10
2019-06-25T09:20:44.299Z,1.98
2019-06-25T09:23:17.892Z,2.42
2019-06-25T09:25:47.915Z,1.98
2019-06-25T09:28:17.954Z,2.25
2019-06-25T09:30:48.909Z,2.15
2019-06-25T09:33:19.732Z,2.00
2019-06-25T09:35:51.271Z,2.40
2019-06-25T09:38:19.746Z,2.30
2019-06-25T09:40:55.285Z,2.60
2019-06-25T09:43:25.417Z,2.00
2019-06-25T09:45:55.877Z,2.22
2019-06-25T09:48:27.466Z,2.20
2019-06-25T09:50:58.629Z,2.08
2019-06-25T09:53:29.988Z,1.95
2019-06-25T09:56:01.407Z,2.70
2019-06-25T09:58:32.760Z,2.72
2019-06-25T10:01:03.640Z,2.30
2019-06-25T10:03:35.433Z,1.95
2019-06-25T10:06:06.555Z,2.00
2019-06-25T10:08:37.700Z,2.37
2019-06-25T10:11:06.768Z,2.35
2019-06-25T10:13:36.149Z,1.95
2019-06-25T10:16:06.327Z,2.00
2019-06-25T10:18:44.411Z,2.20
2019-06-25T10:21:09.872Z,1.90
2019-06-25T10:23:38.502Z,4.00
2019-06-25T10:26:06.962Z,2.50
2019-06-25T10:28:39.562Z,2.30
2019-06-25T10:31:08.742Z,2.37
2019-06-25T10:33:42.571Z,2.20
2019-06-25T10:36:14.180Z,2.60
2019-06-25T10:38:45.962Z,2.20
2019-06-25T10:41:17.314Z,2.58
2019-06-25T10:43:45.697Z,1.90
2019-06-25T10:46:14.095Z,2.37
2019-06-25T10:48:42.997Z,3.02
2019-06-25T10:51:15.630Z,2.35
2019-06-25T10:53:45.052Z,2.30
2019-06-25T10:56:13.679Z,2.47
2019-06-25T10:58:43.026Z,2.00
2019-06-25T11:01:11.723Z,2.62
2019-06-25T11:03:40.104Z,2.30
2019-06-25T11:06:14.475Z,2.20
2019-06-25T11:08:43.801Z,2.55
2019-06-25T11:11:20.848Z,2.50
2019-06-25T11:14:04.019Z,2.77
2019-06-25T11:16:21.799Z,2.10
2019-06-25T11:18:50.270Z,2.47
2019-06-25T11:21:23.789Z,2.50
2019-06-25T11:23:53.343Z,2.50
2019-06-25T11:26:25.834Z,3.58
2019-06-25T11:28:58.447Z,2.10
2019-06-25T11:31:26.906Z,2.58
2019-06-25T11:33:58.582Z,2.47
2019-06-25T11:36:33.846Z,2.72
2019-06-25T11:39:05.477Z,2.50
2019-06-25T11:41:36.824Z,2.20
2019-06-25T11:44:09.092Z,2.60
2019-06-25T11:46:37.479Z,2.40
2019-06-25T11:49:05.885Z,2.52
2019-06-25T11:51:34.513Z,2.75
2019-06-25T11:54:05.882Z,2.20
2019-06-25T11:56:36.734Z,2.55
2019-06-25T11:59:06.676Z,2.62
2019-06-25T12:01:38.470Z,2.10
2019-06-25T12:04:08.897Z,2.27
2019-06-25T12:06:53.531Z,2.55
2019-06-25T12:09:12.130Z,2.08
2019-06-25T12:11:42.057Z,2.62
2019-06-25T12:14:16.329Z,2.37
2019-06-25T12:16:47.425Z,2.52
2019-06-25T12:19:20.887Z,2.62
2019-06-25T12:21:50.677Z,2.17
2019-06-25T12:24:21.979Z,2.72
2019-06-25T12:26:56.411Z,2.08
2019-06-25T12:29:26.657Z,2.08
2019-06-25T12:31:56.046Z,2.50
2019-06-25T12:34:24.686Z,2.00
2019-06-25T12:37:08.318Z,1.90
2019-06-25T12:39:23.458Z,2.40
2019-06-25T12:41:57.773Z,2.05
2019-06-25T12:44:26.163Z,2.08
2019-06-25T12:47:02.513Z,2.30
2019-06-25T12:49:30.309Z,2.90
2019-06-25T12:52:03.739Z,2.35
2019-06-25T12:54:32.100Z,2.30
2019-06-25T12:57:03.157Z,2.33
2019-06-25T12:59:34.240Z,2.25
2019-06-25T13:02:08.645Z,2.98
2019-06-25T13:04:38.182Z,2.92
2019-06-25T13:07:25.114Z,2.75
2019-06-25T13:09:44.155Z,2.35
2019-06-25T13:12:17.128Z,2.75
2019-06-25T13:14:45.758Z,2.50
2019-06-25T13:17:15.705Z,2.35
2019-06-25T13:19:44.113Z,2.17
2019-06-25T13:22:15.265Z,2.33
2019-06-25T13:24:51.108Z,2.40
2019-06-25T13:27:21.516Z,2.37
2019-06-25T13:29:52.882Z,2.30
2019-06-25T13:32:24.418Z,2.17
2019-06-25T13:34:55.459Z,2.00
2019-06-25T13:37:41.778Z,2.00
2019-06-25T13:40:04.078Z,2.37
2019-06-25T13:42:35.595Z,2.25
2019-06-25T13:45:07.066Z,2.60
2019-06-25T13:47:35.488Z,2.42
2019-06-25T13:50:07.261Z,2.62
2019-06-25T13:52:39.951Z,1.82
2019-06-25T13:55:11.150Z,2.27
2019-06-25T13:57:49.206Z,2.08
2019-06-25T14:00:15.784Z,2.33
2019-06-25T14:02:49.755Z,2.33
2019-06-25T14:05:24.025Z,2.45
2019-06-25T14:07:59.414Z,2.50
2019-06-25T14:10:27.216Z,2.47
2019-06-25T14:13:01.519Z,2.65
2019-06-25T14:15:29.007Z,2.52
2019-06-25T14:18:00.298Z,2.52
2019-06-25T14:20:28.703Z,2.37
2019-06-25T14:22:57.101Z,2.37
2019-06-25T14:25:27.982Z,2.52
2019-06-25T14:27:59.321Z,2.22
2019-06-25T14:30:27.855Z,2.58
2019-06-25T14:33:00.107Z,3.50
2019-06-25T14:35:28.566Z,2.60
2019-06-25T14:38:14.398Z,2.45
2019-06-25T14:40:32.726Z,2.30
2019-06-25T14:43:04.168Z,2.50
2019-06-25T14:45:38.274Z,2.05
2019-06-25T14:48:06.679Z,2.17
2019-06-25T14:50:38.054Z,1.95
2019-06-25T14:53:09.530Z,2.40
2019-06-25T14:55:41.081Z,2.55
2019-06-25T14:58:12.985Z,2.40
2019-06-25T15:00:44.304Z,2.20
2019-06-25T15:03:14.334Z,2.98
2019-06-25T15:05:46.742Z,2.47
2019-06-25T15:08:29.938Z,2.33
2019-06-25T15:10:45.818Z,2.02
2019-06-25T15:13:17.162Z,2.20
2019-06-25T15:15:45.873Z,1.90
2019-06-25T15:18:14.255Z,2.50
2019-06-25T15:20:45.983Z,2.35
2019-06-25T15:23:16.842Z,2.60
2019-06-25T15:25:46.141Z,2.70
2019-06-25T15:28:20.728Z,2.42
2019-06-25T15:30:49.117Z,2.47
2019-06-25T15:33:20.501Z,2.50
2019-06-25T15:35:51.762Z,2.40
2019-06-25T15:38:24.420Z,2.65
2019-06-25T15:41:01.878Z,2.20
2019-06-25T15:43:34.575Z,2.70
2019-06-25T15:46:04.468Z,2.35
2019-06-25T15:48:32.854Z,2.37
2019-06-25T15:51:01.284Z,2.40
2019-06-25T15:53:32.542Z,3.00
2019-06-25T15:56:03.853Z,2.52
2019-06-25T15:58:34.750Z,2.45
2019-06-25T16:01:03.123Z,2.00
2019-06-25T16:03:36.904Z,2.25
2019-06-25T16:06:08.263Z,2.22
2019-06-25T16:08:36.651Z,2.20
2019-06-25T16:11:07.938Z,2.35
2019-06-25T16:13:39.105Z,1.92
2019-06-25T16:16:10.406Z,1.95
2019-06-25T16:18:41.765Z,2.33
2019-06-25T16:21:15.871Z,2.33
2019-06-25T16:23:47.888Z,2.47
2019-06-25T16:26:20.027Z,2.25
2019-06-25T16:28:54.443Z,2.47
2019-06-25T16:31:26.616Z,2.25
2019-06-25T16:33:57.879Z,1.92
2019-06-25T16:36:28.970Z,2.45
2019-06-25T16:38:57.362Z,1.90
2019-06-25T16:41:31.967Z,2.40
2019-06-25T16:44:01.763Z,2.10
2019-06-25T16:46:31.779Z,1.95
2019-06-25T16:49:00.167Z,2.17
2019-06-25T16:51:36.281Z,2.22
2019-06-25T16:54:18.478Z,2.20
2019-06-25T16:56:46.861Z,1.92
2019-06-25T16:59:17.933Z,1.95
2019-06-25T17:01:49.237Z,2.02
2019-06-25T17:04:17.630Z,2.50
2019-06-25T17:06:47.669Z,2.42
2019-06-25T17:09:33.959Z,2.17
2019-06-25T17:11:51.939Z,2.20
2019-06-25T17:14:26.714Z,2.30
2019-06-25T17:16:55.115Z,2.10
2019-06-25T17:19:25.134Z,2.83
2019-06-25T17:21:53.534Z,2.62
2019-06-25T17:24:25.282Z,2.45
2019-06-25T17:26:58.514Z,2.77
2019-06-25T17:29:26.901Z,2.30
2019-06-25T17:31:55.293Z,2.45
2019-06-25T17:34:26.408Z,2.55
2019-06-25T17:36:58.173Z,2.52
2019-06-25T17:39:30.061Z,2.40
2019-06-25T17:42:00.004Z,2.17
2019-06-25T17:44:31.466Z,2.10
2019-06-25T17:46:59.865Z,2.12
2019-06-25T17:49:31.014Z,1.92
2019-06-25T17:52:07.862Z,2.58
2019-06-25T17:54:36.265Z,2.35
2019-06-25T17:57:07.381Z,2.80
2019-06-25T17:59:35.782Z,2.62
2019-06-25T18:02:06.266Z,3.10
2019-06-25T18:04:37.327Z,2.47
2019-06-25T18:07:05.975Z,2.30
2019-06-25T18:09:40.371Z,2.40
2019-06-25T18:12:05.701Z,2.15
2019-06-25T18:14:34.086Z,2.55
2019-06-25T18:17:05.314Z,2.50
2019-06-25T18:19:35.729Z,2.25
2019-06-25T18:22:04.877Z,2.00
2019-06-25T18:24:38.024Z,2.20
2019-06-25T18:27:11.605Z,2.60
2019-06-25T18:29:41.656Z,2.40
2019-06-25T18:32:11.590Z,2.17
2019-06-25T18:34:43.091Z,2.47
2019-06-25T18:37:11.483Z,2.33
2019-06-25T18:39:42.775Z,3.05
2019-06-25T18:42:14.047Z,1.98
2019-06-25T18:44:45.158Z,2.00
2019-06-25T18:47:16.281Z,2.50
2019-06-25T18:49:46.218Z,2.67
2019-06-25T18:52:17.906Z,3.08
2019-06-25T18:54:46.306Z,2.20
2019-06-25T18:57:17.867Z,2.30
2019-06-25T18:59:46.269Z,2.45
2019-06-25T19:02:17.713Z,2.20
2019-06-25T19:04:46.105Z,2.37
2019-06-25T19:07:17.286Z,2.12
2019-06-25T19:09:45.689Z,2.47
2019-06-25T19:12:17.152Z,2.45
2019-06-25T19:14:45.790Z,2.45
2019-06-25T19:17:19.901Z,5.72
2019-06-25T19:19:48.317Z,2.98
2019-06-25T19:22:16.709Z,2.40
2019-06-25T19:24:45.637Z,2.58
2019-06-25T19:27:16.919Z,2.40
2019-06-25T19:29:49.366Z,2.40
2019-06-25T19:32:15.435Z,2.62
2019-06-25T19:34:44.098Z,2.47
2019-06-25T19:37:18.112Z,2.52
2019-06-25T19:39:46.545Z,2.60
2019-06-25T19:42:18.114Z,2.90
2019-06-25T19:44:48.922Z,2.62
2019-06-25T19:47:26.489Z,2.62
2019-06-25T19:49:54.881Z,3.83
2019-06-25T19:52:29.135Z,2.95
2019-06-25T19:55:00.486Z,2.65
2019-06-25T19:57:35.074Z,2.80
2019-06-25T20:00:07.546Z,2.65
2019-06-25T20:02:38.953Z,2.35
2019-06-25T20:05:10.592Z,2.62
2019-06-25T20:07:41.791Z,2.77
2019-06-25T20:10:12.630Z,2.60
2019-06-25T20:12:43.953Z,3.52
2019-06-25T20:15:15.626Z,3.08
2019-06-25T20:17:45.530Z,3.02
2019-06-25T20:20:17.150Z,2.80
2019-06-25T20:22:48.454Z,2.95
2019-06-25T20:25:21.198Z,3.08
2019-06-25T20:27:52.002Z,2.50
2019-06-25T20:30:23.097Z,3.25
2019-06-25T20:32:51.478Z,3.00
2019-06-25T20:35:19.876Z,2.83
2019-06-25T20:37:55.632Z,2.62
2019-06-25T20:40:24.028Z,2.72
2019-06-25T20:42:52.564Z,2.95
2019-06-25T20:45:21.990Z,2.52
2019-06-25T20:47:53.052Z,3.40
2019-06-25T20:50:22.688Z,3.02
2019-06-25T20:52:51.114Z,2.50
2019-06-25T20:55:19.550Z,2.90
2019-06-25T20:57:48.391Z,3.05
2019-06-25T21:00:18.638Z,2.65
2019-06-25T21:02:49.776Z,3.30
2019-06-25T21:05:19.713Z,3.15
2019-06-25T21:07:54.525Z,2.85
2019-06-25T21:10:22.937Z,3.10
2019-06-25T21:12:51.349Z,2.60
2019-06-25T21:15:25.837Z,3.87
2019-06-25T21:18:02.738Z,3.15
2019-06-25T21:20:32.783Z,2.70
2019-06-25T21:23:02.848Z,2.77
2019-06-25T21:25:34.417Z,2.62
2019-06-25T21:28:03.051Z,3.30
2019-06-25T21:30:33.090Z,3.52
2019-06-25T21:33:01.778Z,3.47
2019-06-25T21:35:31.443Z,3.20
2019-06-25T21:38:00.071Z,3.58
2019-06-25T21:40:32.996Z,3.30
2019-06-25T21:43:04.366Z,3.10
2019-06-25T21:45:35.538Z,3.42
2019-06-25T21:48:04.704Z,3.55
2019-06-25T21:50:33.342Z,3.47
2019-06-25T21:53:05.373Z,2.83
2019-06-25T21:55:33.769Z,3.47
2019-06-25T21:58:07.846Z,3.30
2019-06-25T22:00:39.528Z,3.12
2019-06-25T22:03:11.045Z,3.30
2019-06-25T22:05:39.674Z,4.55
2019-06-25T22:08:08.322Z,3.42
2019-06-25T22:10:37.630Z,3.47
2019-06-25T22:13:08.441Z,5.03
2019-06-25T22:15:37.838Z,4.55
2019-06-25T22:18:06.247Z,4.10
2019-06-25T22:20:34.710Z,4.67
2019-06-25T22:23:08.879Z,4.90
2019-06-25T22:25:37.264Z,3.65
2019-06-25T22:28:08.630Z,4.17
2019-06-25T22:30:39.832Z,5.45
2019-06-25T22:33:10.891Z,4.97
2019-06-25T22:35:39.297Z,4.70
2019-06-25T22:38:16.212Z,4.67
2019-06-25T22:40:47.527Z,5.15
2019-06-25T22:43:27.234Z,5.00
2019-06-25T22:46:00.124Z,4.40
2019-06-25T22:48:33.875Z,4.47
2019-06-25T22:51:02.416Z,5.12
2019-06-25T22:53:33.668Z,3.95
2019-06-25T22:56:07.878Z,4.17
2019-06-25T22:58:37.164Z,3.92
2019-06-25T23:01:05.559Z,4.15
2019-06-25T23:03:38.405Z,4.53
2019-06-25T23:06:09.922Z,4.50
2019-06-25T23:08:39.974Z,3.47
2019-06-25T23:11:11.313Z,3.90
2019-06-25T23:13:46.437Z,3.77
2019-06-25T23:16:14.844Z,3.27
2019-06-25T23:18:48.658Z,3.87
2019-06-25T23:21:18.602Z,3.62
2019-06-25T23:23:49.839Z,4.03
2019-06-25T23:26:18.226Z,3.80
2019-06-25T23:28:49.460Z,4.30
2019-06-25T23:31:17.881Z,5.20
2019-06-25T23:33:48.989Z,4.30
2019-06-25T23:36:23.845Z,4.05
2019-06-25T23:38:56.055Z,4.37
2019-06-25T23:41:32.537Z,4.78
2019-06-25T23:44:00.929Z,4.10
2019-06-25T23:46:30.505Z,4.65
2019-06-25T23:49:03.375Z,4.60
2019-06-25T23:51:33.425Z,4.55
2019-06-25T23:54:02.049Z,4.22
2019-06-25T23:56:33.172Z,4.67
2019-06-25T23:59:07.400Z,4.33
